Delta Virtual Airport Information Service

Lilongwe International Airport

ICAO: FWKI Country: Malawi
Latitude: -13.7893 Longitude: 33.781
Latest Arrival : DAC521 (UHWW-FWKI) Latest Departure : DAC690 (FWKI-KBOS)


WX CaptureLIVE
Data provided by noaa.gov | Fetched at 12:09:23

METAR : FWKI 281600Z 10011KT 9999 FEW028CB 23/14 Q1019 NOSIG

TAF : FWKI 281000Z 2812/2918 14008KT 9999 BKN025 BKN080 BECMG 2812/2814 14008KT 9999 FEW030CB SCT035 FM281800 17005KT CAVOK BECMG 2906/2908 17007KT FEW020 BECMG 2910/2912 18006KT 9999 SCT030 FM291400 08010KT CAVOK


Runway Data for FWKI
Data provided by openaviationdata.com

Runway ID Mag Var Hdg Length Elevation Surface ILS Freq ILS Id ILS Slope
14 -6 135° 11616 ft 4034 ft Asphalt 109.9 KM 3
32 -6 315° 11616 ft 4034 ft Asphalt -- -- --

Lilongwe International Airport, Malawi
Use only for reference purposes



Not for navigational purposes.